Time;durP1;ratioP1;P1;durP2;ratioP2;P2;SDS_P1;SDS_P2;PMS_P1;PMS_P2;Temp;Humidity;BMP_temperature;BMP_pressure;BME280_temperature;BME280_humidity;BME280_pressure;Samples;Min_cycle;Max_cycle;Signal;HPM_P1;HPM_P2
2024/02/18 00:01:35;;;;;;;4.25;2.72;;;12.10;94.00;;;;;;5047241;28;20025;-67
2024/02/18 00:04:01;;;;;;;3.75;2.30;;;12.10;94.00;;;;;;5043729;28;20028;-67
2024/02/18 00:06:30;;;;;;;5.82;2.80;;;12.10;94.00;;;;;;5046098;28;20040;-67
2024/02/18 00:08:55;;;;;;;5.03;2.63;;;12.10;94.00;;;;;;5045818;28;20508;-68
2024/02/18 00:11:21;;;;;;;5.18;2.90;;;12.10;94.00;;;;;;5041182;28;20112;-67
2024/02/18 00:13:46;;;;;;;5.35;2.75;;;12.10;93.90;;;;;;5046401;28;20025;-67
2024/02/18 00:16:12;;;;;;;4.82;2.28;;;12.10;93.90;;;;;;5041751;28;20752;-67
2024/02/18 00:18:38;;;;;;;5.13;2.40;;;12.10;93.90;;;;;;5042088;28;20033;-67
2024/02/18 00:21:04;;;;;;;2.90;2.20;;;12.00;93.90;;;;;;5046625;28;20025;-67
2024/02/18 00:23:29;;;;;;;4.03;2.30;;;12.10;93.90;;;;;;5047059;28;20032;-67
2024/02/18 00:25:55;;;;;;;5.50;2.60;;;12.10;93.90;;;;;;5048600;28;20150;-65
2024/02/18 00:28:21;;;;;;;5.85;2.70;;;12.00;93.80;;;;;;5047759;28;20479;-64
2024/02/18 00:30:50;;;;;;;3.70;2.40;;;12.10;93.80;;;;;;5049491;28;20036;-67
2024/02/18 00:33:17;;;;;;;6.47;2.85;;;12.10;93.70;;;;;;5046306;28;20029;-67
2024/02/18 00:35:42;;;;;;;5.60;2.80;;;12.00;93.60;;;;;;5047360;28;20484;-67
2024/02/18 00:38:08;;;;;;;5.82;3.15;;;12.00;93.80;;;;;;5049086;28;20114;-67
2024/02/18 00:40:33;;;;;;;5.80;2.40;;;12.00;93.50;;;;;;5049035;28;21708;-66
2024/02/18 00:42:59;;;;;;;3.83;2.28;;;12.00;93.50;;;;;;5048586;28;20025;-67
2024/02/18 00:45:25;;;;;;;5.72;2.97;;;12.00;93.50;;;;;;5049363;28;20017;-67
2024/02/18 00:47:50;;;;;;;5.30;2.30;;;12.00;93.40;;;;;;5049835;28;20029;-67
2024/02/18 00:50:16;;;;;;;4.90;2.17;;;12.00;93.40;;;;;;5048296;28;20116;-67
2024/02/18 00:52:41;;;;;;;5.03;2.08;;;12.10;93.40;;;;;;5050797;28;20035;-67
2024/02/18 00:55:08;;;;;;;5.70;2.67;;;12.00;93.40;;;;;;5053965;28;20017;-67
2024/02/18 00:57:34;;;;;;;4.47;2.17;;;12.00;93.40;;;;;;5052971;28;20021;-67
2024/02/18 01:00:00;;;;;;;7.72;2.80;;;12.00;93.40;;;;;;5044472;28;20036;-66
2024/02/18 01:02:29;;;;;;;4.68;2.35;;;12.00;93.30;;;;;;5050022;28;20021;-66
2024/02/18 01:04:58;;;;;;;5.95;2.88;;;12.00;93.30;;;;;;5048416;28;20032;-66
2024/02/18 01:07:24;;;;;;;6.45;2.80;;;11.90;93.20;;;;;;5053473;28;20040;-67
2024/02/18 01:09:50;;;;;;;7.28;2.72;;;11.90;93.10;;;;;;5051785;28;20498;-66
2024/02/18 01:12:16;;;;;;;5.35;2.53;;;11.90;93.20;;;;;;5053658;28;20078;-66
2024/02/18 01:14:45;;;;;;;5.80;2.40;;;11.80;93.10;;;;;;5054483;28;20020;-66
2024/02/18 01:17:13;;;;;;;3.50;2.10;;;11.90;93.10;;;;;;5051332;28;20021;-67
2024/02/18 01:19:38;;;;;;;3.72;2.10;;;11.90;93.10;;;;;;5049479;28;20043;-66
2024/02/18 01:22:04;;;;;;;6.95;2.70;;;11.90;93.10;;;;;;5051538;28;20037;-67
2024/02/18 01:24:29;;;;;;;7.50;2.30;;;11.90;92.90;;;;;;5052461;28;20122;-66
2024/02/18 01:26:55;;;;;;;5.25;2.33;;;11.80;92.90;;;;;;5055099;28;20552;-67
2024/02/18 01:29:22;;;;;;;4.75;2.40;;;11.80;92.90;;;;;;5050469;28;20063;-66
2024/02/18 01:31:48;;;;;;;5.72;2.50;;;11.80;92.90;;;;;;5053225;28;20036;-68
2024/02/18 01:34:14;;;;;;;4.63;2.13;;;11.80;92.80;;;;;;5049738;28;20017;-67
2024/02/18 01:36:39;;;;;;;1.60;1.45;;;11.80;92.80;;;;;;5051852;28;20136;-68
2024/02/18 01:39:05;;;;;;;4.55;1.83;;;11.80;92.80;;;;;;5057973;28;20451;-66
2024/02/18 01:41:30;;;;;;;2.88;1.60;;;11.90;92.90;;;;;;5049876;28;20036;-65
2024/02/18 01:43:56;;;;;;;3.47;1.92;;;11.90;92.80;;;;;;5053977;28;20562;-66
2024/02/18 01:46:22;;;;;;;4.93;2.25;;;11.90;92.80;;;;;;5053370;28;20345;-66
2024/02/18 01:48:48;;;;;;;3.90;2.28;;;11.90;92.80;;;;;;5052262;28;20737;-65
2024/02/18 01:51:14;;;;;;;2.55;1.70;;;11.90;92.70;;;;;;5054509;28;20032;-67
2024/02/18 01:53:41;;;;;;;2.47;1.92;;;11.90;92.60;;;;;;5050442;28;20029;-66
2024/02/18 01:56:08;;;;;;;3.90;2.28;;;11.90;92.60;;;;;;5047089;28;20031;-66
2024/02/18 01:58:34;;;;;;;7.80;2.75;;;11.90;92.60;;;;;;5049399;28;20501;-67
2024/02/18 02:01:00;;;;;;;4.53;2.03;;;11.90;92.50;;;;;;5055746;28;20111;-66
2024/02/18 02:03:27;;;;;;;4.20;1.80;;;11.80;92.40;;;;;;5052093;28;20040;-67
2024/02/18 02:05:54;;;;;;;5.40;2.35;;;11.90;92.50;;;;;;5053419;28;20448;-68
2024/02/18 02:08:22;;;;;;;4.15;1.77;;;11.90;92.50;;;;;;5048893;28;21750;-67
2024/02/18 02:10:50;;;;;;;3.85;1.80;;;11.90;92.50;;;;;;5055909;28;20037;-67
2024/02/18 02:13:15;;;;;;;5.93;2.10;;;11.90;92.40;;;;;;5048436;28;20021;-68
2024/02/18 02:15:41;;;;;;;4.20;2.20;;;11.90;92.30;;;;;;5052422;28;20029;-67
2024/02/18 02:18:07;;;;;;;6.93;2.47;;;11.90;92.40;;;;;;5051314;28;20036;-68
2024/02/18 02:20:32;;;;;;;6.70;2.22;;;11.90;92.30;;;;;;5049292;28;20029;-68
2024/02/18 02:22:58;;;;;;;5.28;2.50;;;11.90;92.20;;;;;;5055241;28;20016;-68
2024/02/18 02:25:24;;;;;;;5.00;2.45;;;11.90;92.20;;;;;;5046768;28;20036;-67
2024/02/18 02:28:18;;;;;;;5.00;2.30;;;11.90;92.20;;;;;;5052872;28;20082;-67
2024/02/18 02:30:46;;;;;;;6.65;2.50;;;11.90;92.10;;;;;;5051770;28;20455;-67
2024/02/18 02:33:12;;;;;;;3.55;1.85;;;11.90;92.20;;;;;;5055325;28;20083;-68
2024/02/18 02:35:38;;;;;;;3.00;1.48;;;11.90;92.20;;;;;;5045801;28;20029;-67
2024/02/18 02:38:03;;;;;;;4.75;2.28;;;11.90;92.20;;;;;;5044671;28;20109;-67
2024/02/18 02:40:29;;;;;;;2.90;1.90;;;11.90;92.20;;;;;;5051850;28;20033;-68
2024/02/18 02:42:54;;;;;;;5.05;2.83;;;12.00;92.20;;;;;;5054492;28;20525;-68
2024/02/18 02:45:20;;;;;;;5.10;2.40;;;11.90;92.00;;;;;;5045375;28;20098;-68
2024/02/18 02:47:46;;;;;;;5.88;3.00;;;11.90;91.90;;;;;;5049406;28;20037;-68
2024/02/18 02:50:11;;;;;;;4.25;2.20;;;11.90;91.90;;;;;;5051551;28;20029;-69
2024/02/18 02:52:40;;;;;;;6.22;2.80;;;11.90;91.90;;;;;;5054435;28;20064;-68
2024/02/18 02:55:06;;;;;;;5.30;2.65;;;11.90;91.80;;;;;;5055882;28;20077;-67
2024/02/18 02:57:31;;;;;;;4.57;2.40;;;11.90;91.80;;;;;;5053080;28;20025;-67
2024/02/18 02:59:57;;;;;;;6.22;2.45;;;11.90;91.80;;;;;;5050472;28;20498;-68
2024/02/18 03:02:22;;;;;;;4.43;2.30;;;11.90;91.80;;;;;;5049382;28;20155;-67
2024/02/18 03:04:48;;;;;;;3.92;2.40;;;11.90;91.80;;;;;;5054638;28;20121;-68
2024/02/18 03:07:13;;;;;;;6.22;2.40;;;11.90;91.70;;;;;;5053071;28;20031;-67
2024/02/18 03:09:39;;;;;;;4.45;2.45;;;11.90;91.70;;;;;;5047968;28;20029;-67
2024/02/18 03:12:05;;;;;;;4.57;2.33;;;11.90;91.60;;;;;;5052573;28;20124;-67
2024/02/18 03:14:31;;;;;;;4.85;2.60;;;11.90;91.60;;;;;;5050070;28;20030;-67
2024/02/18 03:16:58;;;;;;;6.00;2.33;;;11.90;91.60;;;;;;5054021;28;20138;-67
2024/02/18 03:19:23;;;;;;;5.45;2.42;;;11.90;91.50;;;;;;5047285;28;20100;-68
2024/02/18 03:21:49;;;;;;;5.72;2.60;;;11.90;91.50;;;;;;5051812;28;20120;-69
2024/02/18 03:24:14;;;;;;;4.55;2.10;;;11.90;91.50;;;;;;5050064;28;20028;-67
2024/02/18 03:26:40;;;;;;;4.45;2.33;;;11.90;91.50;;;;;;5051000;28;20602;-68
2024/02/18 03:29:08;;;;;;;4.68;2.05;;;11.90;91.50;;;;;;5052956;28;20050;-67
2024/02/18 03:31:36;;;;;;;5.32;2.67;;;11.90;91.50;;;;;;5050086;28;20029;-68
2024/02/18 03:34:02;;;;;;;4.35;1.92;;;11.90;91.40;;;;;;5053814;28;20056;-68
2024/02/18 03:36:27;;;;;;;3.05;1.90;;;11.90;91.40;;;;;;5049886;28;20057;-68
2024/02/18 03:38:53;;;;;;;2.67;1.80;;;12.00;91.50;;;;;;5051928;28;20056;-68
2024/02/18 03:41:18;;;;;;;4.60;1.88;;;12.00;91.50;;;;;;5049479;28;20032;-68
2024/02/18 03:43:44;;;;;;;3.03;1.67;;;12.00;91.40;;;;;;5050577;28;20032;-67
2024/02/18 03:46:10;;;;;;;4.55;1.95;;;11.90;91.40;;;;;;5048338;28;20021;-66
2024/02/18 03:48:35;;;;;;;3.97;2.05;;;12.00;91.40;;;;;;5050633;28;20028;-67
2024/02/18 03:51:01;;;;;;;5.20;2.40;;;11.90;91.40;;;;;;5054739;28;20056;-68
2024/02/18 03:53:26;;;;;;;4.15;2.20;;;11.90;91.30;;;;;;5041128;28;20052;-67
2024/02/18 03:55:52;;;;;;;3.60;2.05;;;11.90;91.30;;;;;;5049265;28;20032;-67
2024/02/18 03:58:17;;;;;;;5.47;2.55;;;11.90;91.20;;;;;;5046897;28;20112;-68
2024/02/18 04:00:46;;;;;;;4.70;2.10;;;11.80;91.10;;;;;;5051543;28;20017;-67
2024/02/18 04:03:12;;;;;;;5.22;2.40;;;11.90;91.20;;;;;;5056202;28;20075;-68
2024/02/18 04:05:38;;;;;;;4.75;2.00;;;11.80;91.20;;;;;;5048713;28;20025;-67
2024/02/18 04:08:04;;;;;;;6.07;2.70;;;11.90;91.30;;;;;;5044491;28;20438;-68
2024/02/18 04:10:30;;;;;;;5.50;2.40;;;11.80;91.10;;;;;;5045015;28;20025;-68
2024/02/18 04:12:55;;;;;;;4.07;2.20;;;11.80;91.10;;;;;;5049469;28;20507;-69
2024/02/18 04:15:22;;;;;;;4.80;2.50;;;11.70;91.00;;;;;;5047423;28;20051;-67
2024/02/18 04:17:48;;;;;;;2.97;2.05;;;11.70;91.10;;;;;;5045755;28;20419;-68
2024/02/18 04:20:13;;;;;;;4.38;2.10;;;11.70;91.10;;;;;;5044667;28;20025;-68
2024/02/18 04:22:41;;;;;;;3.25;2.30;;;11.80;91.20;;;;;;5047915;28;20614;-67
2024/02/18 04:25:07;;;;;;;5.13;2.30;;;11.70;91.10;;;;;;5052078;28;20070;-68
2024/02/18 04:27:32;;;;;;;3.80;2.30;;;11.70;91.10;;;;;;5047741;28;20037;-68
2024/02/18 04:29:58;;;;;;;7.93;2.72;;;11.70;91.20;;;;;;5057650;28;20479;-68
2024/02/18 04:32:23;;;;;;;5.50;2.65;;;11.70;91.10;;;;;;5054741;28;20511;-67
2024/02/18 04:34:49;;;;;;;3.85;2.20;;;11.60;91.10;;;;;;5054402;28;20025;-66
2024/02/18 04:37:15;;;;;;;4.32;2.10;;;11.70;91.20;;;;;;5059781;28;20035;-66
2024/02/18 04:39:40;;;;;;;7.43;2.75;;;11.60;91.20;;;;;;5056861;28;20024;-66
2024/02/18 04:42:06;;;;;;;6.55;2.30;;;11.60;91.20;;;;;;5057755;28;20029;-67
2024/02/18 04:44:33;;;;;;;9.00;3.00;;;11.60;91.20;;;;;;5045278;28;20033;-66
2024/02/18 04:46:58;;;;;;;5.95;2.72;;;11.50;91.20;;;;;;5051407;28;20025;-67
2024/02/18 04:49:24;;;;;;;6.40;2.50;;;11.50;91.20;;;;;;5055282;28;20040;-67
2024/02/18 04:51:49;;;;;;;4.72;2.22;;;11.50;91.60;;;;;;5052839;28;20032;-67
2024/02/18 04:54:15;;;;;;;3.50;1.90;;;11.50;91.40;;;;;;5052093;28;20027;-68
2024/02/18 04:56:41;;;;;;;5.75;2.38;;;11.50;91.50;;;;;;5057220;28;20028;-67
2024/02/18 04:59:07;;;;;;;5.53;2.40;;;11.40;91.50;;;;;;5055484;28;20470;-66
2024/02/18 05:01:33;;;;;;;4.97;2.30;;;11.40;91.60;;;;;;5052471;28;20372;-66
2024/02/18 05:03:58;;;;;;;4.43;2.10;;;11.40;91.60;;;;;;5053790;28;20032;-67
2024/02/18 05:06:24;;;;;;;4.43;1.92;;;11.40;91.70;;;;;;5054772;28;20525;-67
2024/02/18 05:08:50;;;;;;;3.30;1.90;;;11.40;91.80;;;;;;5054886;28;20044;-67
2024/02/18 05:11:15;;;;;;;5.03;2.22;;;11.40;91.80;;;;;;5057388;28;20653;-67
2024/02/18 05:13:41;;;;;;;4.20;1.95;;;11.30;91.90;;;;;;5050796;28;20113;-67
2024/02/18 05:16:08;;;;;;;3.65;2.10;;;11.30;92.00;;;;;;5051581;28;20021;-67
2024/02/18 05:18:34;;;;;;;4.85;1.90;;;11.30;92.10;;;;;;5054941;28;20028;-66
2024/02/18 05:21:03;;;;;;;4.32;1.70;;;11.30;92.10;;;;;;5057112;28;20024;-66
2024/02/18 05:23:29;;;;;;;3.53;2.00;;;11.30;92.10;;;;;;5049398;28;20431;-67
2024/02/18 05:25:55;;;;;;;3.60;1.92;;;11.20;92.10;;;;;;5052993;28;20119;-67
2024/02/18 05:28:20;;;;;;;4.50;2.28;;;11.20;92.20;;;;;;5040751;28;20029;-66
2024/02/18 05:30:46;;;;;;;5.03;2.55;;;11.20;92.30;;;;;;5052931;28;21199;-66
2024/02/18 05:33:11;;;;;;;5.68;2.78;;;11.20;92.40;;;;;;5056451;28;20039;-66
2024/02/18 05:35:37;;;;;;;5.22;2.38;;;11.10;92.40;;;;;;5054917;28;20124;-67
2024/02/18 05:38:03;;;;;;;6.35;2.50;;;11.10;92.50;;;;;;5053730;28;20029;-66
2024/02/18 05:40:29;;;;;;;5.57;2.92;;;11.10;92.60;;;;;;5055500;28;20036;-66
2024/02/18 05:42:54;;;;;;;5.55;2.78;;;11.00;92.60;;;;;;5053105;28;20090;-66
2024/02/18 05:45:22;;;;;;;5.00;2.35;;;11.00;92.70;;;;;;5060099;28;20029;-67
2024/02/18 05:47:48;;;;;;;5.22;2.35;;;11.00;92.80;;;;;;5046713;28;20395;-68
2024/02/18 05:50:13;;;;;;;5.32;2.50;;;11.00;92.90;;;;;;5049343;28;20079;-68
2024/02/18 05:52:39;;;;;;;5.45;2.40;;;10.90;92.90;;;;;;5058114;28;20075;-67
2024/02/18 05:55:05;;;;;;;7.13;2.70;;;10.90;93.00;;;;;;5055895;28;20339;-67
2024/02/18 05:57:31;;;;;;;5.10;2.50;;;10.90;93.10;;;;;;5052666;28;20025;-67
2024/02/18 05:59:56;;;;;;;4.35;2.17;;;10.90;93.10;;;;;;5052681;28;20475;-66
2024/02/18 06:02:22;;;;;;;4.03;2.03;;;11.00;93.10;;;;;;5055808;28;20024;-67
2024/02/18 06:04:48;;;;;;;3.40;2.28;;;10.90;93.10;;;;;;5048284;28;20033;-66
2024/02/18 06:07:13;;;;;;;7.80;3.08;;;10.90;93.20;;;;;;5048522;28;20032;-67
2024/02/18 06:09:39;;;;;;;7.30;3.20;;;10.90;93.40;;;;;;5052565;28;20028;-67
2024/02/18 06:12:05;;;;;;;5.88;2.50;;;10.80;93.40;;;;;;5054674;28;20071;-67
2024/02/18 06:14:30;;;;;;;5.25;2.72;;;10.80;93.50;;;;;;5054978;28;20021;-66
2024/02/18 06:16:56;;;;;;;4.72;2.50;;;10.80;93.50;;;;;;5049690;28;20025;-67
2024/02/18 06:19:21;;;;;;;9.18;3.75;;;10.80;93.60;;;;;;5049156;28;20036;-67
2024/02/18 06:21:47;;;;;;;9.73;3.40;;;10.80;93.80;;;;;;5048462;28;20025;-66
2024/02/18 06:24:12;;;;;;;5.10;2.97;;;10.70;93.90;;;;;;5046545;28;20027;-67
2024/02/18 06:26:41;;;;;;;6.38;2.90;;;10.70;94.00;;;;;;5048019;28;20112;-67
2024/02/18 06:29:07;;;;;;;4.88;2.33;;;10.70;94.10;;;;;;5044383;28;20025;-67
2024/02/18 06:31:32;;;;;;;6.18;2.38;;;10.70;94.10;;;;;;5049313;28;20033;-66
2024/02/18 06:33:58;;;;;;;7.60;4.40;;;10.70;94.10;;;;;;5049374;28;20043;-67
2024/02/18 06:36:25;;;;;;;5.13;2.60;;;10.60;94.30;;;;;;5049767;28;20020;-67
2024/02/18 06:38:51;;;;;;;7.05;3.53;;;10.60;94.40;;;;;;5048023;28;20036;-67
2024/02/18 06:41:16;;;;;;;6.47;2.80;;;10.60;94.50;;;;;;5049171;28;20104;-68
2024/02/18 06:43:42;;;;;;;6.00;2.92;;;10.60;94.50;;;;;;5048400;28;20025;-68
2024/02/18 06:46:07;;;;;;;7.20;2.80;;;10.60;94.50;;;;;;5045526;28;20025;-68
2024/02/18 06:48:33;;;;;;;5.07;2.53;;;10.60;94.50;;;;;;5047298;28;20033;-68
2024/02/18 06:50:58;;;;;;;5.65;2.75;;;10.60;94.60;;;;;;5048508;28;20053;-68
2024/02/18 06:53:24;;;;;;;5.43;2.60;;;10.60;94.60;;;;;;5053221;28;20024;-67
2024/02/18 06:55:50;;;;;;;5.40;2.67;;;10.60;94.60;;;;;;5050939;28;20029;-67
2024/02/18 06:58:19;;;;;;;4.20;2.22;;;10.60;94.70;;;;;;5048037;28;20447;-67
2024/02/18 07:00:45;;;;;;;5.28;2.10;;;10.60;94.70;;;;;;5047848;28;20131;-67
2024/02/18 07:03:10;;;;;;;4.18;2.25;;;10.60;94.70;;;;;;5049198;28;20040;-67
2024/02/18 07:05:36;;;;;;;5.20;2.58;;;10.60;94.80;;;;;;5046569;28;20027;-67
2024/02/18 07:08:04;;;;;;;5.28;2.45;;;10.60;94.80;;;;;;5041795;28;20403;-68
2024/02/18 07:10:29;;;;;;;3.90;2.40;;;10.50;94.90;;;;;;5047746;28;20456;-68
2024/02/18 07:12:55;;;;;;;3.15;1.90;;;10.50;94.90;;;;;;5043015;28;20124;-67
2024/02/18 07:15:21;;;;;;;3.30;1.80;;;10.50;95.00;;;;;;5047488;28;20031;-66
2024/02/18 07:17:46;;;;;;;4.97;2.10;;;10.50;95.00;;;;;;5035115;28;20079;-68
2024/02/18 07:20:14;;;;;;;4.03;2.03;;;10.50;95.00;;;;;;5044790;28;20063;-67
2024/02/18 07:22:42;;;;;;;4.55;2.70;;;10.50;95.00;;;;;;5047376;28;20021;-67
2024/02/18 07:25:09;;;;;;;4.90;2.60;;;10.50;95.00;;;;;;5046793;28;20048;-67
2024/02/18 07:27:35;;;;;;;8.73;2.67;;;10.50;95.10;;;;;;5048154;28;20090;-66
2024/02/18 07:30:02;;;;;;;5.22;2.30;;;10.50;95.20;;;;;;5044054;28;20551;-67
2024/02/18 07:32:28;;;;;;;5.60;2.45;;;10.40;95.20;;;;;;5042872;28;20513;-67
2024/02/18 07:34:54;;;;;;;5.53;2.55;;;10.40;95.30;;;;;;5039619;28;20022;-67
2024/02/18 07:37:19;;;;;;;6.03;2.97;;;10.40;95.30;;;;;;5047393;28;20017;-68
2024/02/18 07:39:45;;;;;;;5.53;2.40;;;10.40;95.30;;;;;;5046634;28;20410;-68
2024/02/18 07:42:10;;;;;;;4.95;2.33;;;10.40;95.40;;;;;;5048049;28;20048;-67
2024/02/18 07:44:36;;;;;;;6.93;2.85;;;10.40;95.40;;;;;;5047925;28;20387;-67
2024/02/18 07:47:01;;;;;;;6.97;2.60;;;10.40;95.50;;;;;;5048073;28;20039;-68
2024/02/18 07:49:27;;;;;;;7.63;2.70;;;10.40;95.60;;;;;;5045381;28;20386;-68
2024/02/18 07:51:52;;;;;;;6.38;2.38;;;10.40;95.60;;;;;;5046509;28;20043;-68
2024/02/18 07:54:18;;;;;;;5.43;2.42;;;10.40;95.60;;;;;;5047760;28;20028;-68
2024/02/18 07:56:45;;;;;;;5.15;2.40;;;10.40;95.60;;;;;;5047691;28;20031;-67
2024/02/18 07:59:12;;;;;;;4.43;2.28;;;10.40;95.60;;;;;;5047725;28;20047;-67
2024/02/18 08:01:38;;;;;;;5.20;2.85;;;10.40;95.60;;;;;;5044776;28;20017;-66
2024/02/18 08:04:04;;;;;;;3.97;1.73;;;10.40;95.60;;;;;;5050726;28;20037;-67
2024/02/18 08:06:29;;;;;;;5.03;2.40;;;10.40;95.60;;;;;;5051197;28;20021;-66
2024/02/18 08:08:55;;;;;;;4.25;2.38;;;10.40;95.70;;;;;;5048719;28;20558;-66
2024/02/18 08:11:21;;;;;;;5.55;2.42;;;10.40;95.70;;;;;;5047464;28;20079;-67
2024/02/18 08:13:47;;;;;;;6.53;2.80;;;10.40;96.00;;;;;;5051871;28;20037;-67
2024/02/18 08:16:13;;;;;;;7.82;2.88;;;10.40;95.80;;;;;;5053168;28;20028;-67
2024/02/18 08:18:39;;;;;;;3.78;2.05;;;10.40;95.80;;;;;;5051420;28;20553;-67
2024/02/18 08:21:05;;;;;;;4.63;2.72;;;10.40;95.80;;;;;;5047830;28;20045;-68
2024/02/18 08:23:31;;;;;;;6.03;2.60;;;10.40;95.80;;;;;;5053227;28;20021;-68
2024/02/18 08:25:57;;;;;;;5.28;2.35;;;10.40;95.80;;;;;;5050252;28;20504;-67
2024/02/18 08:28:22;;;;;;;4.18;2.03;;;10.40;95.80;;;;;;5051190;28;20601;-68
2024/02/18 08:30:48;;;;;;;5.80;2.65;;;10.40;95.80;;;;;;5047979;28;20028;-67
2024/02/18 08:33:14;;;;;;;5.45;2.58;;;10.40;95.90;;;;;;5051350;28;20066;-68
2024/02/18 08:35:39;;;;;;;6.47;2.45;;;10.40;95.90;;;;;;5050092;28;20028;-67
2024/02/18 08:38:05;;;;;;;6.78;3.25;;;10.40;96.00;;;;;;5052209;28;20021;-68
2024/02/18 08:40:30;;;;;;;5.43;3.10;;;10.30;96.10;;;;;;5047537;28;20104;-68
2024/02/18 08:42:56;;;;;;;7.45;2.80;;;10.30;96.20;;;;;;5052584;28;20044;-68
2024/02/18 08:45:21;;;;;;;3.53;2.45;;;10.20;96.30;;;;;;5049331;28;20067;-67
2024/02/18 08:47:48;;;;;;;6.60;2.70;;;10.20;96.30;;;;;;5045488;28;20037;-68
2024/02/18 08:50:13;;;;;;;7.15;3.13;;;10.20;96.40;;;;;;5046402;28;20028;-68
2024/02/18 08:52:39;;;;;;;6.15;2.83;;;10.20;96.50;;;;;;5049087;28;20021;-68
2024/02/18 08:55:05;;;;;;;3.70;1.98;;;10.20;96.60;;;;;;5052461;28;20024;-67
2024/02/18 08:57:31;;;;;;;4.43;2.47;;;10.20;96.60;;;;;;5049742;28;20434;-68
2024/02/18 08:59:58;;;;;;;4.15;2.05;;;10.20;96.60;;;;;;5050138;28;20017;-68
2024/02/18 09:02:24;;;;;;;5.10;2.72;;;10.20;96.60;;;;;;5050415;28;20090;-67
2024/02/18 09:04:50;;;;;;;5.13;2.55;;;10.20;96.60;;;;;;5051079;28;20478;-67
2024/02/18 09:07:15;;;;;;;4.20;2.50;;;10.20;96.70;;;;;;5051213;28;20052;-67
2024/02/18 09:09:41;;;;;;;5.20;2.20;;;10.20;96.80;;;;;;5046992;28;20040;-66
2024/02/18 09:12:07;;;;;;;7.35;3.55;;;10.10;96.80;;;;;;5049086;28;20033;-67
2024/02/18 09:14:32;;;;;;;5.25;2.60;;;10.10;97.00;;;;;;5050827;28;20025;-67
2024/02/18 09:16:58;;;;;;;3.50;2.17;;;10.00;97.20;;;;;;5048802;28;20030;-67
2024/02/18 09:19:23;;;;;;;5.88;2.90;;;10.00;97.20;;;;;;5043708;28;20071;-67
2024/02/18 09:21:50;;;;;;;8.05;2.80;;;10.00;97.20;;;;;;5043704;28;20139;-67
2024/02/18 09:24:15;;;;;;;4.45;2.70;;;10.00;97.30;;;;;;5049044;28;20547;-68
2024/02/18 09:26:41;;;;;;;7.65;3.00;;;10.00;97.50;;;;;;5046313;28;20116;-68
2024/02/18 09:29:07;;;;;;;5.00;2.50;;;10.00;97.50;;;;;;5049902;28;20099;-68
2024/02/18 09:31:36;;;;;;;7.05;2.83;;;10.00;97.50;;;;;;5045761;28;20056;-67
2024/02/18 09:34:02;;;;;;;7.20;2.83;;;10.00;97.60;;;;;;5046856;28;20033;-68
2024/02/18 09:36:27;;;;;;;4.82;2.47;;;9.90;97.70;;;;;;5043987;28;20052;-67
2024/02/18 09:38:53;;;;;;;4.72;2.50;;;9.90;97.80;;;;;;5044224;28;20391;-68
2024/02/18 09:41:21;;;;;;;8.82;3.10;;;10.00;97.90;;;;;;5049362;28;20101;-67
2024/02/18 09:43:49;;;;;;;7.40;2.97;;;9.90;97.90;;;;;;5049644;28;20100;-67
2024/02/18 09:46:19;;;;;;;5.85;2.97;;;9.90;97.90;;;;;;5047363;28;20043;-68
2024/02/18 09:48:44;;;;;;;6.78;3.10;;;10.00;98.00;;;;;;5047683;28;20039;-68
2024/02/18 09:51:12;;;;;;;5.05;2.85;;;9.90;98.10;;;;;;5043290;28;20036;-68
2024/02/18 09:53:38;;;;;;;5.15;2.60;;;9.90;98.10;;;;;;5044966;28;20036;-67
2024/02/18 09:56:04;;;;;;;6.80;3.00;;;9.90;98.20;;;;;;5042502;28;20021;-67
2024/02/18 09:58:30;;;;;;;5.55;2.90;;;10.00;98.20;;;;;;5049509;28;20025;-68
2024/02/18 10:00:58;;;;;;;3.72;2.28;;;10.00;98.20;;;;;;5045960;28;20059;-67
2024/02/18 10:03:24;;;;;;;5.35;3.10;;;10.00;98.20;;;;;;5048868;28;20384;-68
2024/02/18 10:05:49;;;;;;;3.88;2.05;;;10.00;98.30;;;;;;5047863;28;20031;-68
2024/02/18 10:08:15;;;;;;;4.55;2.60;;;10.00;98.30;;;;;;5049687;28;20263;-67
2024/02/18 10:10:40;;;;;;;5.18;2.70;;;10.00;98.30;;;;;;5045536;28;20108;-68
2024/02/18 10:13:07;;;;;;;4.18;2.75;;;10.00;98.40;;;;;;5049255;28;20040;-68
2024/02/18 10:15:34;;;;;;;3.85;2.10;;;10.00;98.40;;;;;;5053386;28;20050;-67
2024/02/18 10:18:00;;;;;;;3.38;1.90;;;10.00;98.30;;;;;;5051265;28;20108;-69
2024/02/18 10:20:30;;;;;;;3.65;1.70;;;10.00;98.30;;;;;;5047035;28;20024;-68
2024/02/18 10:22:56;;;;;;;3.50;1.98;;;10.10;98.30;;;;;;5048758;28;20020;-67
2024/02/18 10:25:21;;;;;;;5.57;2.78;;;10.10;98.30;;;;;;5050809;28;20021;-68
2024/02/18 10:27:47;;;;;;;4.45;2.75;;;10.10;98.40;;;;;;5049197;28;20021;-68
2024/02/18 10:30:13;;;;;;;4.35;2.65;;;10.10;98.30;;;;;;5046930;28;20483;-68
2024/02/18 10:32:39;;;;;;;3.67;1.90;;;10.10;98.30;;;;;;5043758;28;20052;-67
2024/02/18 10:35:05;;;;;;;4.28;2.30;;;10.10;98.20;;;;;;5045441;28;20433;-66
2024/02/18 10:37:35;;;;;;;6.78;2.95;;;10.10;98.20;;;;;;5044690;28;20025;-67
2024/02/18 10:40:32;;;;;;;6.28;2.40;;;10.10;98.20;;;;;;5043922;28;20021;-67
2024/02/18 10:43:01;;;;;;;4.25;2.40;;;10.00;98.20;;;;;;5027337;28;20442;-67
2024/02/18 10:45:28;;;;;;;3.55;2.00;;;10.00;98.30;;;;;;5044949;28;20035;-67
2024/02/18 10:47:55;;;;;;;4.80;2.38;;;10.00;98.30;;;;;;5045699;28;20028;-67
2024/02/18 10:50:34;;;;;;;3.85;2.00;;;10.00;98.30;;;;;;5041762;28;20079;-67
2024/02/18 10:53:08;;;;;;;2.70;1.75;;;10.00;98.40;;;;;;5045019;28;20613;-67
2024/02/18 10:55:55;;;;;;;2.85;1.90;;;10.00;98.40;;;;;;5043871;28;20032;-66
2024/02/18 10:58:57;;;;;;;3.10;2.17;;;10.10;98.40;;;;;;5041784;28;20020;-67
2024/02/18 11:01:26;;;;;;;2.95;2.00;;;10.10;98.30;;;;;;5047773;28;20032;-66
2024/02/18 11:03:57;;;;;;;4.03;1.90;;;10.10;98.20;;;;;;5044249;28;20110;-68
2024/02/18 11:06:23;;;;;;;4.45;2.53;;;10.00;98.20;;;;;;5045948;28;20037;-68
2024/02/18 11:08:51;;;;;;;5.32;2.20;;;10.00;98.30;;;;;;5045654;28;20033;-68
2024/02/18 11:11:17;;;;;;;4.38;1.80;;;10.00;98.40;;;;;;5040734;28;20025;-67
2024/02/18 11:13:44;;;;;;;4.28;1.98;;;10.00;98.40;;;;;;5045026;28;20025;-67
2024/02/18 11:16:10;;;;;;;6.15;2.47;;;10.00;98.40;;;;;;5040861;28;20499;-67
2024/02/18 11:18:37;;;;;;;8.77;2.80;;;10.00;98.40;;;;;;5043608;28;20079;-67
2024/02/18 11:21:04;;;;;;;4.70;2.10;;;10.00;98.40;;;;;;5041369;28;20017;-67
2024/02/18 11:23:32;;;;;;;5.57;2.47;;;9.90;98.50;;;;;;5047324;28;20095;-67
2024/02/18 11:25:59;;;;;;;4.13;2.20;;;9.90;98.60;;;;;;5047019;28;20036;-67
2024/02/18 11:28:25;;;;;;;6.20;2.45;;;10.00;98.60;;;;;;5045170;28;20029;-67
2024/02/18 11:30:50;;;;;;;8.40;2.80;;;10.00;98.50;;;;;;5047525;28;20074;-67
2024/02/18 11:33:19;;;;;;;4.78;2.10;;;10.00;98.50;;;;;;5042668;28;20150;-67
2024/02/18 11:35:45;;;;;;;4.18;2.22;;;10.00;98.50;;;;;;5043025;28;20036;-67
2024/02/18 11:38:11;;;;;;;3.63;1.85;;;10.00;98.50;;;;;;5040882;28;20024;-67
2024/02/18 11:40:47;;;;;;;4.05;1.92;;;10.00;98.50;;;;;;5044300;28;20032;-69
2024/02/18 11:43:14;;;;;;;7.30;2.30;;;10.00;98.50;;;;;;5046797;28;20040;-68
2024/02/18 11:45:46;;;;;;;3.83;2.10;;;9.90;98.50;;;;;;5045986;28;20087;-68
2024/02/18 11:48:12;;;;;;;;;;;9.90;98.60;;;;;;5044827;28;20083;-68
2024/02/18 11:50:37;;;;;;;4.60;2.10;;;9.90;98.80;;;;;;5043218;28;19960;-68
2024/02/18 11:53:04;;;;;;;3.55;1.77;;;9.90;98.70;;;;;;5042946;28;20061;-67
2024/02/18 11:55:29;;;;;;;3.70;1.85;;;9.90;98.70;;;;;;5042672;28;20025;-68
2024/02/18 11:57:56;;;;;;;3.30;1.92;;;10.00;98.60;;;;;;5044073;28;20112;-68
2024/02/18 12:00:23;;;;;;;3.38;2.00;;;10.00;98.50;;;;;;5046589;28;20021;-67
2024/02/18 12:02:54;;;;;;;4.18;1.73;;;9.90;98.40;;;;;;5044043;28;20807;-68
2024/02/18 12:05:23;;;;;;;5.63;2.08;;;10.00;98.50;;;;;;5049248;28;20032;-67
2024/02/18 12:07:50;;;;;;;4.80;1.88;;;10.00;98.30;;;;;;5043743;28;20064;-67
2024/02/18 12:10:20;;;;;;;3.60;2.00;;;9.90;98.30;;;;;;5042757;28;20505;-67
2024/02/18 12:12:46;;;;;;;2.35;1.50;;;10.00;98.30;;;;;;5041020;28;20443;-68
2024/02/18 12:15:22;;;;;;;7.18;3.40;;;10.00;98.30;;;;;;5044732;28;20049;-68
2024/02/18 12:17:52;;;;;;;6.50;4.05;;;10.00;98.30;;;;;;5040510;28;20036;-68
2024/02/18 12:20:19;;;;;;;12.65;6.57;;;10.00;98.20;;;;;;5038424;28;20059;-68
2024/02/18 12:22:46;;;;;;;11.52;6.82;;;10.00;98.20;;;;;;5044544;28;20481;-68
2024/02/18 12:25:14;;;;;;;35.53;21.45;;;10.00;98.10;;;;;;5042057;28;20492;-67
2024/02/18 12:27:40;;;;;;;19.42;10.50;;;10.00;98.10;;;;;;5042783;28;20029;-67
2024/02/18 12:30:10;;;;;;;11.88;6.70;;;9.90;98.10;;;;;;5041457;28;20067;-67
2024/02/18 12:32:36;;;;;;;9.15;4.55;;;9.90;98.10;;;;;;5044070;28;20460;-67
2024/02/18 12:35:03;;;;;;;4.65;3.15;;;10.00;98.10;;;;;;5040902;28;20064;-67
2024/02/18 12:37:29;;;;;;;4.43;2.40;;;10.00;98.20;;;;;;5043682;28;20021;-68
2024/02/18 12:39:55;;;;;;;4.35;2.28;;;9.90;98.20;;;;;;5037784;28;20021;-67
2024/02/18 12:42:21;;;;;;;3.83;2.45;;;9.90;98.20;;;;;;5047159;28;20586;-68
2024/02/18 12:44:47;;;;;;;3.88;2.35;;;9.90;98.10;;;;;;5046403;28;20033;-67